Carmel — 9HKK8 — position and weather

sailwx.info

Track history (hours):
 
Tides and Currents Weather Stations Pressure Air Temp Water Temp Dewpoint Dewpoint Depression Visibility Wind Speed Wind Dir Waves Ship Positions

Carmel

Last reported at 2018-Jan-22 13:01 UTC. Time now 2018-Jan-22 22:20 UTC.
Position N 55°25' E 006°04'.

Length 244 m; draft 8.2 m.

Type: Tanker. MMSI: 249583000.

Date/timePositionNaut miles runAvg speedWind from/ knotsBaromVisibWave heightAir tempDewpointWater temp
2018-Jan-22 13:01N 55°25' E 006°04'0 8.8
2018-Jan-22 12:58N 55°25' E 006°04'4 8.8
2018-Jan-22 12:30N 55°21' E 005°60'5 8.8
2018-Jan-22 11:59N 55°17' E 005°56'4 8.8
2018-Jan-22 11:29N 55°14' E 005°51'4 8.8
2018-Jan-22 11:00N 55°10' E 005°47'236 8.4
2018-Jan-21 07:01N 51°44' E 002°34'4 9.4
2018-Jan-21 06:38N 51°42' E 002°31'1 9.5
2018-Jan-21 06:30N 51°41' E 002°29'8 9.6
2018-Jan-21 05:42N 51°35' E 002°21'2 9.8
2018-Jan-21 05:29N 51°33' E 002°19'510.0
2018-Jan-21 04:59N 51°30' E 002°14'510.4
2018-Jan-21 04:30N 51°26' E 002°09'5 9.7
2018-Jan-21 04:00N 51°21' E 002°07'5 9.4
2018-Jan-21 03:30N 51°16' E 002°06'5 9.4
2018-Jan-21 03:00N 51°13' E 002°02'510.9
2018-Jan-21 02:30N 51°10' E 001°54'611.0
2018-Jan-21 02:00N 51°08' E 001°46'510.7
2018-Jan-21 01:30N 51°04' E 001°40'510.2
2018-Jan-21 01:00N 51°00' E 001°34'510.2
2018-Jan-21 00:30N 50°57' E 001°28'510.4
2018-Jan-21 00:00N 50°52' E 001°25'5 9.9
2018-Jan-20 23:29N 50°47' E 001°23'42 8.2
2018-Jan-20 18:20N 50°24' E 000°27'3 8.5
2018-Jan-20 18:00N 50°23' E 000°23'4 8.4
2018-Jan-20 17:30N 50°22' E 000°17'4 8.3
2018-Jan-20 17:00N 50°21' E 000°11'4 7.9
2018-Jan-20 16:30N 50°20' E 000°05'4 7.5
2018-Jan-20 16:00N 50°19' W 000°01'4 7.6
2018-Jan-20 15:30N 50°18' W 000°07'6 7.8
2018-Jan-20 14:46N 50°16' W 000°15'17 8.4
2018-Jan-20 12:44N 50°12' W 000°41'2 9.7
2018-Jan-20 12:29N 50°11' W 000°45'8110.9
2018-Jan-20 05:06N 49°50' W 002°46'4 8.2
2018-Jan-20 04:34N 49°48' W 002°52'0 8.1
2018-Jan-20 04:30N 49°48' W 002°53'5 8.0
2018-Jan-20 03:55N 49°46' W 002°59'4 7.8
2018-Jan-20 03:25N 49°44' W 003°04'4 7.7
2018-Jan-20 02:53N 49°42' W 003°10'5 7.7
2018-Jan-20 02:17N 49°40' W 003°16'94 9.0
2018-Jan-19 15:54N 48°52' W 005°20'4 9.6
2018-Jan-19 15:30N 48°50' W 005°25'5 9.4
2018-Jan-19 15:00N 48°48' W 005°31'67 6.1
2018-Jan-19 03:59N 47°44' W 004°60'4 7.5
2018-Jan-19 03:27N 47°42' W 004°55'4 7.8
2018-Jan-19 03:00N 47°40' W 004°50'37 8.4
2018-Jan-18 22:35N 47°23' W 004°02'1 8.4
2018-Jan-18 22:27N 47°22' W 004°00'4 8.7
2018-Jan-18 21:58N 47°20' W 003°55'4 8.7
2018-Jan-18 21:29N 47°18' W 003°49'5 8.2
2018-Jan-18 20:54N 47°16' W 003°43'6 8.2
2018-Jan-18 20:07N 47°14' W 003°34'1 8.2
2018-Jan-18 19:59N 47°14' W 003°32'5 8.7
2018-Jan-18 19:22N 47°12' W 003°25'4 8.2
2018-Jan-18 18:49N 47°11' W 003°18'3 8.5
2018-Jan-18 18:30N 47°10' W 003°14'4 8.2
2018-Jan-18 18:00N 47°09' W 003°09'4 8.0
2018-Jan-18 17:30N 47°09' W 003°03'4 8.5
2018-Jan-18 17:00N 47°07' W 002°57'4 8.6
2018-Jan-18 16:30N 47°06' W 002°51'4 8.1
2018-Jan-18 15:59N 47°05' W 002°45'5 8.8
2018-Jan-18 15:27N 47°04' W 002°38'5 8.0
2018-Jan-18 14:52N 47°03' W 002°31'3 8.4
2018-Jan-18 14:30N 47°04' W 002°27'3 6.7
2018-Jan-18 14:00N 47°07' W 002°23'2 4.7
2018-Jan-18 13:30N 47°08' W 002°21'510.2
2018-Jan-18 13:00N 47°12' W 002°17'510.5
2018-Jan-18 12:30N 47°16' W 002°11'4 7.3
2018-Jan-18 12:00N 47°18' W 002°07'0 0.8
2018-Jan-18 11:30N 47°18' W 002°06'0 0.0
2018-Jan-18 11:00N 47°18' W 002°06'0 0.0
2018-Jan-18 10:29N 47°18' W 002°06'0 0.0
2018-Jan-18 10:00N 47°18' W 002°06'0 0.0
2018-Jan-18 09:28N 47°18' W 002°06'0 0.0
2018-Jan-18 08:55N 47°18' W 002°06'0 0.0
2018-Jan-18 08:28N 47°18' W 002°06'0 0.0
2018-Jan-18 07:58N 47°18' W 002°06'0 0.0
2018-Jan-18 07:28N 47°18' W 002°06'0 0.0
2018-Jan-18 06:52N 47°18' W 002°06'0 0.0
2018-Jan-18 06:22N 47°18' W 002°06'0 0.0
2018-Jan-18 05:55N 47°18' W 002°06'0 0.0
2018-Jan-18 05:28N 47°18' W 002°06'0 0.0
2018-Jan-18 04:55N 47°18' W 002°06'0 0.0
2018-Jan-18 04:22N 47°18' W 002°06'0 0.0
2018-Jan-18 03:58N 47°18' W 002°06'0 0.0
2018-Jan-18 03:10N 47°18' W 002°06'0 0.0
2018-Jan-18 02:52N 47°18' W 002°06'0 0.0
2018-Jan-18 02:28N 47°18' W 002°06'0 0.0
2018-Jan-18 01:55N 47°18' W 002°06'0 0.0
2018-Jan-18 01:25N 47°18' W 002°06'0 0.0
2018-Jan-18 00:55N 47°18' W 002°06'0 0.0
2018-Jan-17 23:58N 47°18' W 002°06'0 0.0
2018-Jan-17 23:46N 47°18' W 002°06'  
Track history (hours):
 
Tides and Currents Weather Stations Pressure Air Temp Water Temp Dewpoint Dewpoint Depression Visibility Wind Speed Wind Dir Waves Ship Positions

Carmel

Last reported at 2018-Jan-22 13:01 UTC. Time now 2018-Jan-22 22:20 UTC.
Position N 55°25' E 006°04'.

Length 244 m; draft 8.2 m.

Type: Tanker. MMSI: 249583000.

Date/timePositionNaut miles runAvg speedWind from/ knotsBaromVisibWave heightAir tempDewpointWater temp
2018-Jan-22 13:01N 55°25' E 006°04'0 8.8
2018-Jan-22 12:58N 55°25' E 006°04'4 8.8
2018-Jan-22 12:30N 55°21' E 005°60'5 8.8
2018-Jan-22 11:59N 55°17' E 005°56'4 8.8
2018-Jan-22 11:29N 55°14' E 005°51'4 8.8
2018-Jan-22 11:00N 55°10' E 005°47'236 8.4
2018-Jan-21 07:01N 51°44' E 002°34'4 9.4
2018-Jan-21 06:38N 51°42' E 002°31'1 9.5
2018-Jan-21 06:30N 51°41' E 002°29'8 9.6
2018-Jan-21 05:42N 51°35' E 002°21'2 9.8
2018-Jan-21 05:29N 51°33' E 002°19'510.0
2018-Jan-21 04:59N 51°30' E 002°14'510.4
2018-Jan-21 04:30N 51°26' E 002°09'5 9.7
2018-Jan-21 04:00N 51°21' E 002°07'5 9.4
2018-Jan-21 03:30N 51°16' E 002°06'5 9.4
2018-Jan-21 03:00N 51°13' E 002°02'510.9
2018-Jan-21 02:30N 51°10' E 001°54'611.0
2018-Jan-21 02:00N 51°08' E 001°46'510.7
2018-Jan-21 01:30N 51°04' E 001°40'510.2
2018-Jan-21 01:00N 51°00' E 001°34'510.2
2018-Jan-21 00:30N 50°57' E 001°28'510.4
2018-Jan-21 00:00N 50°52' E 001°25'5 9.9
2018-Jan-20 23:29N 50°47' E 001°23'42 8.2
2018-Jan-20 18:20N 50°24' E 000°27'3 8.5
2018-Jan-20 18:00N 50°23' E 000°23'4 8.4
2018-Jan-20 17:30N 50°22' E 000°17'4 8.3
2018-Jan-20 17:00N 50°21' E 000°11'4 7.9
2018-Jan-20 16:30N 50°20' E 000°05'4 7.5
2018-Jan-20 16:00N 50°19' W 000°01'4 7.6
2018-Jan-20 15:30N 50°18' W 000°07'6 7.8
2018-Jan-20 14:46N 50°16' W 000°15'17 8.4
2018-Jan-20 12:44N 50°12' W 000°41'2 9.7
2018-Jan-20 12:29N 50°11' W 000°45'8110.9
2018-Jan-20 05:06N 49°50' W 002°46'4 8.2
2018-Jan-20 04:34N 49°48' W 002°52'0 8.1
2018-Jan-20 04:30N 49°48' W 002°53'5 8.0
2018-Jan-20 03:55N 49°46' W 002°59'4 7.8
2018-Jan-20 03:25N 49°44' W 003°04'4 7.7
2018-Jan-20 02:53N 49°42' W 003°10'5 7.7
2018-Jan-20 02:17N 49°40' W 003°16'94 9.0
2018-Jan-19 15:54N 48°52' W 005°20'4 9.6
2018-Jan-19 15:30N 48°50' W 005°25'5 9.4
2018-Jan-19 15:00N 48°48' W 005°31'67 6.1
2018-Jan-19 03:59N 47°44' W 004°60'4 7.5
2018-Jan-19 03:27N 47°42' W 004°55'4 7.8
2018-Jan-19 03:00N 47°40' W 004°50'37 8.4
2018-Jan-18 22:35N 47°23' W 004°02'1 8.4
2018-Jan-18 22:27N 47°22' W 004°00'4 8.7
2018-Jan-18 21:58N 47°20' W 003°55'4 8.7
2018-Jan-18 21:29N 47°18' W 003°49'5 8.2
2018-Jan-18 20:54N 47°16' W 003°43'6 8.2
2018-Jan-18 20:07N 47°14' W 003°34'1 8.2
2018-Jan-18 19:59N 47°14' W 003°32'5 8.7
2018-Jan-18 19:22N 47°12' W 003°25'4 8.2
2018-Jan-18 18:49N 47°11' W 003°18'3 8.5
2018-Jan-18 18:30N 47°10' W 003°14'4 8.2
2018-Jan-18 18:00N 47°09' W 003°09'4 8.0
2018-Jan-18 17:30N 47°09' W 003°03'4 8.5
2018-Jan-18 17:00N 47°07' W 002°57'4 8.6
2018-Jan-18 16:30N 47°06' W 002°51'4 8.1
2018-Jan-18 15:59N 47°05' W 002°45'5 8.8
2018-Jan-18 15:27N 47°04' W 002°38'5 8.0
2018-Jan-18 14:52N 47°03' W 002°31'3 8.4
2018-Jan-18 14:30N 47°04' W 002°27'3 6.7
2018-Jan-18 14:00N 47°07' W 002°23'2 4.7
2018-Jan-18 13:30N 47°08' W 002°21'510.2
2018-Jan-18 13:00N 47°12' W 002°17'510.5
2018-Jan-18 12:30N 47°16' W 002°11'4 7.3
2018-Jan-18 12:00N 47°18' W 002°07'0 0.8
2018-Jan-18 11:30N 47°18' W 002°06'0 0.0
2018-Jan-18 11:00N 47°18' W 002°06'0 0.0
2018-Jan-18 10:29N 47°18' W 002°06'0 0.0
2018-Jan-18 10:00N 47°18' W 002°06'0 0.0
2018-Jan-18 09:28N 47°18' W 002°06'0 0.0
2018-Jan-18 08:55N 47°18' W 002°06'0 0.0
2018-Jan-18 08:28N 47°18' W 002°06'0 0.0
2018-Jan-18 07:58N 47°18' W 002°06'0 0.0
2018-Jan-18 07:28N 47°18' W 002°06'0 0.0
2018-Jan-18 06:52N 47°18' W 002°06'0 0.0
2018-Jan-18 06:22N 47°18' W 002°06'0 0.0
2018-Jan-18 05:55N 47°18' W 002°06'0 0.0
2018-Jan-18 05:28N 47°18' W 002°06'0 0.0
2018-Jan-18 04:55N 47°18' W 002°06'0 0.0
2018-Jan-18 04:22N 47°18' W 002°06'0 0.0
2018-Jan-18 03:58N 47°18' W 002°06'0 0.0
2018-Jan-18 03:10N 47°18' W 002°06'0 0.0
2018-Jan-18 02:52N 47°18' W 002°06'0 0.0
2018-Jan-18 02:28N 47°18' W 002°06'0 0.0
2018-Jan-18 01:55N 47°18' W 002°06'0 0.0
2018-Jan-18 01:25N 47°18' W 002°06'0 0.0
2018-Jan-18 00:55N 47°18' W 002°06'0 0.0
2018-Jan-17 23:58N 47°18' W 002°06'0 0.0
2018-Jan-17 23:46N 47°18' W 002°06'  

Dump ship's entire track history